Latest Weather Observations for Albury

IDN60801

Issued at 7:34 am EDT Wednesday 28 January 2015 (issued every 30 minutes, with the page automatically refreshed every 10 minutes)

About weather observations | Map of weather stations | Latest weather observations for NSW | Other Formats
Station Details ID: 072160 Name: ALBURY AIRPORT AWS Lat: -36.07 Lon: 146.95 Height: 163.5 m
Data from the previous 72 hours. | See also: Recent months at Albury
Date/Time
EDT
Temp
°C
App
Temp
°C
Dew
Point
Rel
Hum
%
Delta-T
°C
Wind Press
QNH
hPa
Press
MSL
hPa
Rain
since 9 am
mm
Dir
 
Spd
km/h
Gust
km/h
Spd
kts
Gust
kts
28/07:30am 18.3 15.6 10.4 60 4.3 SE 15 22 8 12 1014.0 1013.2 0.0
28/07:00am 17.7 14.9 10.1 61 4.1 SE 15 20 8 11 1013.7 1012.9 0.0
28/06:30am 17.6 14.9 10.2 62 4.0 SSE 15 20 8 11 1013.5 1012.7 0.0
28/06:00am 17.3 15.5 10.7 65 3.6 SSE 11 17 6 9 1013.0 1012.2 0.0
28/05:30am 16.8 15.3 10.4 66 3.4 SSE 9 13 5 7 1012.7 1011.9 0.0
28/05:00am 17.0 15.7 10.1 64 3.7 SE 7 11 4 6 1012.7 1011.9 0.0
28/04:30am 17.4 15.4 10.3 63 3.8 SE 11 13 6 7 1012.5 1011.7 0.0
28/04:00am 17.9 15.9 10.0 60 4.2 SSE 11 15 6 8 1012.5 1011.7 0.0
28/03:30am 18.2 16.2 10.1 59 4.3 SSE 11 15 6 8 1012.7 1011.9 0.0
28/03:00am 18.4 14.9 10.3 59 4.4 SE 19 28 10 15 1012.8 1012.0 0.0
28/02:30am 18.5 16.2 10.3 59 4.4 SSE 13 22 7 12 1013.0 1012.2 0.0
28/02:00am 18.5 15.4 10.3 59 4.4 SSE 17 28 9 15 1013.2 1012.4 0.0
28/01:30am 18.6 16.0 10.7 60 4.3 SSE 15 24 8 13 1013.1 1012.3 0.0
28/01:00am 18.8 16.3 10.9 60 4.3 SSE 15 20 8 11 1013.0 1012.2 0.0
28/12:30am 19.0 15.7 10.8 59 4.5 SSE 19 28 10 15 1012.9 1012.1 0.0
28/12:00am 18.9 15.4 11.0 60 4.3 SSE 20 30 11 16 1012.8 1012.0 0.0
 
Date/Time
EDT
Temp
°C
App
Temp
°C
Dew
Point
Rel
Hum
%
Delta-T
°C
Wind Press
QNH
hPa
Press
MSL
hPa
Rain
since 9 am
mm
Dir
 
Spd
km/h
Gust
km/h
Spd
kts
Gust
kts
27/11:30pm 18.9 15.4 11.0 60 4.3 SSE 20 28 11 15 1012.7 1011.9 0.0
27/11:00pm 18.9 16.0 11.0 60 4.3 SSE 17 24 9 13 1012.5 1011.7 0.0
27/10:30pm 19.6 16.9 11.6 60 4.4 SE 17 22 9 12 1012.3 1011.5 0.0
27/10:00pm 20.4 18.0 11.3 56 5.1 SE 15 20 8 11 1012.1 1011.3 0.0
27/09:30pm 20.9 17.7 11.3 54 5.3 SE 19 28 10 15 1011.8 1011.0 0.0
27/09:00pm 21.6 17.5 11.3 52 5.8 SE 24 35 13 19 1011.1 1010.3 0.0
27/08:30pm 22.1 18.1 11.8 52 5.8 SE 24 35 13 19 1010.6 1009.8 0.0
27/08:00pm 23.1 18.3 11.8 49 6.4 SE 28 37 15 20 1009.7 1008.8 0.0
27/07:30pm 24.9 20.6 12.2 45 7.3 SSE 26 39 14 21 1009.0 1008.2 0.0
27/07:00pm 27.7 25.8 9.0 31 10.4 SSE 9 13 5 7 1008.2 1007.4 0.0
27/06:30pm 27.8 25.5 9.1 31 10.4 ESE 11 17 6 9 1008.1 1007.3 0.0
27/06:00pm 28.2 28.0 11.7 36 9.6 ENE 4 11 2 6 1007.9 1007.1 0.0
27/05:30pm 28.3 27.5 11.8 36 9.6 SE 7 11 4 6 1008.1 1007.3 0.0
27/05:00pm 27.8 25.9 10.5 34 9.8 SE 11 15 6 8 1008.3 1007.5 0.0
27/04:30pm 27.9 26.5 11.0 35 9.7 SSE 9 19 5 10 1008.6 1007.8 0.0
27/04:00pm 27.5 25.9 11.5 37 9.2 S 11 20 6 11 1008.9 1008.1 0.0
27/03:30pm 27.3 26.0 11.3 37 9.2 WSW 9 17 5 9 1009.4 1008.5 0.0
27/03:00pm 27.1 26.4 13.1 42 8.3 SW 9 20 5 11 1009.8 1009.0 0.0
27/02:30pm 26.2 25.7 13.7 46 7.4 SSE 9 17 5 9 1010.4 1009.6 0.0
27/02:00pm 25.9 24.9 13.4 46 7.4 ESE 11 19 6 10 1010.8 1010.0 0.0
27/01:30pm 25.0 23.7 12.6 46 7.2 ESE 11 20 6 11 1011.1 1010.3 0.0
27/01:00pm 24.8 23.8 12.4 46 7.2 SSE 9 19 5 10 1011.6 1010.8 0.0
27/12:30pm 23.3 21.7 11.7 48 6.6 SSE 11 15 6 8 1012.0 1011.2 0.0
27/12:00pm 23.0 21.0 11.4 48 6.5 SE 13 20 7 11 1012.4 1011.6 0.0
27/11:30am 22.9 20.1 11.3 48 6.5 S 17 24 9 13 1012.7 1011.9 0.0
27/11:00am 23.4 20.8 12.1 49 6.5 SSE 17 22 9 12 1012.8 1012.0 0.0
27/10:30am 22.0 18.7 10.8 49 6.2 SE 19 24 10 13 1012.8 1012.0 0.0
27/10:00am 20.6 17.2 10.4 52 5.6 SSE 19 26 10 14 1013.1 1012.3 0.0
27/09:30am 20.1 16.6 10.2 53 5.4 SE 19 26 10 14 1013.1 1012.3 0.0
27/09:00am 19.3 15.8 10.3 56 4.9 SE 19 24 10 13 1013.2 1012.4 0.0
27/08:30am 18.9 15.8 10.2 57 4.7 SSE 17 22 9 12 1013.0 1012.2 0.0
27/08:00am 17.8 14.9 9.7 59 4.3 SSE 15 20 8 11 1012.9 1012.1 0.0
27/07:30am 17.0 13.2 9.2 60 4.1 SSE 19 24 10 13 1012.7 1011.9 0.0
27/07:00am 16.3 14.1 9.5 64 3.6 SSE 11 15 6 8 1012.8 1012.0 0.0
27/06:30am 16.3 13.7 9.3 63 3.7 SSE 13 17 7 9 1012.6 1011.8 0.0
27/06:00am 16.1 14.3 9.5 65 3.5 SSE 9 13 5 7 1012.5 1011.7 0.0
27/05:30am 16.0 14.3 9.7 66 3.3 SSE 9 13 5 7 1012.4 1011.6 0.0
27/05:00am 16.3 14.5 9.3 63 3.7 SSE 9 13 5 7 1012.4 1011.6 0.0
27/04:30am 16.4 14.3 9.6 64 3.6 SSE 11 15 6 8 1012.3 1011.5 0.0
27/04:00am 16.4 14.6 9.6 64 3.6 SSE 9 15 5 8 1012.6 1011.8 0.0
27/03:30am 16.2 14.3 9.2 63 3.6 SE 9 11 5 6 1012.7 1011.9 0.0
27/03:00am 15.9 14.0 8.9 63 3.6 SE 9 15 5 8 1012.8 1012.0 0.0
27/02:30am 16.3 14.5 9.5 64 3.6 SE 9 13 5 7 1012.9 1012.1 0.0
27/02:00am 16.5 15.0 9.2 62 3.8 SE 7 13 4 7 1012.8 1012.0 0.0
27/01:30am 16.6 13.9 8.8 60 4.0 SE 13 19 7 10 1013.0 1012.2 0.0
27/01:00am 16.8 14.4 8.8 59 4.1 SE 11 15 6 8 1013.0 1012.2 0.0
27/12:30am 17.2 14.0 8.6 57 4.5 SE 15 22 8 12 1012.8 1012.0 0.0
27/12:00am 17.4 14.2 8.3 55 4.7 SSE 15 20 8 11 1012.7 1011.9 0.0
 
Date/Time
EDT
Temp
°C
App
Temp
°C
Dew
Point
Rel
Hum
%
Delta-T
°C
Wind Press
QNH
hPa
Press
MSL
hPa
Rain
since 9 am
mm
Dir
 
Spd
km/h
Gust
km/h
Spd
kts
Gust
kts
26/11:30pm 17.7 14.9 8.6 55 4.7 SSE 13 19 7 10 1012.3 1011.5 0.0
26/11:00pm 18.6 14.7 8.6 52 5.2 SSE 19 26 10 14 1012.2 1011.4 0.0
26/10:30pm 18.7 15.1 8.4 51 5.4 SSE 17 22 9 12 1011.9 1011.1 0.0
26/10:00pm 18.4 16.0 8.7 53 5.1 SSE 11 15 6 8 1011.8 1011.0 0.0
26/09:30pm 19.4 17.6 7.2 45 6.2 NNW 6 17 3 9 1011.3 1010.5 0.0
26/09:00pm 20.6 18.5 5.8 38 7.4 NW 6 7 3 4 1011.1 1010.3 0.0
26/08:30pm 21.2 18.3 4.7 34 8.1 WNW 9 13 5 7 1010.8 1010.0 0.0
26/08:00pm 22.9 19.7 4.9 31 9.0 WNW 11 15 6 8 1010.6 1009.8 0.0
26/07:30pm 24.5 20.8 4.3 27 10.1 W 13 17 7 9 1010.3 1009.5 0.0
26/07:00pm 24.8 21.5 4.5 27 10.2 SSW 11 15 6 8 1010.0 1009.2 0.0
26/06:30pm 25.0 21.3 4.2 26 10.4 SSW 13 20 7 11 1009.8 1009.0 0.0
26/06:00pm 25.1 21.6 3.7 25 10.6 S 11 15 6 8 1009.9 1009.1 0.0
26/05:30pm 25.1 22.3 3.1 24 10.8 S 7 15 4 8 1010.0 1009.2 0.0
26/05:00pm 25.3 22.6 3.9 25 10.7 SSW 7 15 4 8 1010.3 1009.5 0.0
26/04:30pm 24.8 21.9 4.5 27 10.2 E 9 19 5 10 1010.7 1009.9 0.0
26/04:00pm 24.9 21.7 3.0 24 10.7 W 9 19 5 10 1011.0 1010.2 0.0
26/03:30pm 24.4 21.3 3.7 26 10.2 SSE 9 20 5 11 1011.1 1010.3 0.0
26/03:00pm 24.5 21.5 4.3 27 10.1 ENE 9 19 5 10 1011.4 1010.6 0.0
26/02:30pm 24.6 21.6 5.9 30 9.6 NNW 11 17 6 9 1011.7 1010.9 0.0
26/02:00pm 23.8 21.7 6.6 33 8.9 ENE 7 17 4 9 1012.0 1011.2 0.0
26/01:30pm 23.3 20.1 5.2 31 9.1 WNW 11 19 6 10 1012.3 1011.5 0.0
26/01:00pm 23.0 20.6 7.1 36 8.3 S 9 17 5 9 1012.6 1011.8 0.0
26/12:30pm 22.6 19.2 6.0 34 8.5 NW 13 19 7 10 1012.8 1012.0 0.0
26/12:00pm 22.1 19.2 6.3 36 8.1 SSW 11 17 6 9 1013.2 1012.4 0.0
26/11:30am 21.6 18.6 5.9 36 7.9 WSW 11 17 6 9 1013.4 1012.6 0.0
26/11:00am 21.0 18.5 6.5 39 7.4 NNE 9 17 5 9 1013.7 1012.9 0.0
26/10:30am 20.3 18.9 8.9 48 6.1 ENE 6 17 3 9 1013.6 1012.8 0.0
26/10:00am 19.5 18.3 9.7 53 5.3 SE 6 13 3 7 1013.7 1012.9 0.0
26/09:30am 18.4 15.7 8.9 54 5.0 SE 13 20 7 11 1013.7 1012.9 0.0
26/09:00am 17.8 16.1 9.7 59 4.3 SSE 9 13 5 7 1013.6 1012.8 0.0
26/08:30am 16.4 14.4 8.6 60 4.0 S 9 13 5 7 1013.6 1012.8 0.0
26/08:00am 15.3 13.4 7.6 60 3.9 SW 7 11 4 6 1013.4 1012.6 0.0
26/07:30am 13.9 11.3 7.7 66 3.1 SSW 11 15 6 8 1013.0 1012.2 0.0
26/07:00am 12.6 10.6 7.1 69 2.7 SW 7 9 4 5 1012.7 1011.9 0.0
26/06:30am 11.8 10.2 6.3 69 2.6 W 4 6 2 3 1012.3 1011.5 0.0
26/06:00am 12.3 10.3 6.4 67 2.8 WSW 6 7 3 4 1012.0 1011.2 0.0
26/05:30am 13.0 10.7 5.9 62 3.4 SSW 7 9 4 5 1011.5 1010.7 0.0
26/05:00am 12.9 10.8 5.8 62 3.4 SSW 6 9 3 5 1011.1 1010.3 0.0
26/04:30am 12.9 10.6 5.8 62 3.4 S 7 9 4 5 1010.9 1010.1 0.0
26/04:00am 12.5 11.3 6.5 67 2.9 ESE 2 9 1 5 1010.6 1009.8 0.0
26/03:30am 12.6 12.0 7.3 70 2.6 CALM 0 0 0 0 1010.5 1009.7 0.0
26/03:00am 13.8 11.8 6.9 63 3.4 W 7 9 4 5 1010.5 1009.7 0.0
26/02:30am 15.2 13.2 6.2 55 4.4 N 6 9 3 5 1010.3 1009.5 0.0
26/02:00am 14.8 12.8 6.4 57 4.1 S 6 7 3 4 1010.3 1009.5 0.0
26/01:30am 15.7 13.9 5.3 50 5.0 W 4 9 2 5 1010.1 1009.3 0.0
26/01:00am 15.8 13.1 5.4 50 5.0 NW 9 13 5 7 1010.1 1009.3 0.0
26/12:30am 15.8 13.1 5.4 50 5.0 W 9 13 5 7 1010.1 1009.3 0.0
26/12:00am 17.1 13.2 5.4 46 5.7 W 15 20 8 11 1009.8 1009.0 0.0
 
Date/Time
EDT
Temp
°C
App
Temp
°C
Dew
Point
Rel
Hum
%
Delta-T
°C
Wind Press
QNH
hPa
Press
MSL
hPa
Rain
since 9 am
mm
Dir
 
Spd
km/h
Gust
km/h
Spd
kts
Gust
kts
25/11:30pm 17.9 14.0 5.2 43 6.2 W 15 20 8 11 1009.9 1009.1 0.0
25/11:00pm 18.9 15.1 3.9 37 7.2 WSW 13 19 7 10 1009.7 1008.8 0.0
25/10:30pm 19.1 14.5 3.7 36 7.3 W 17 20 9 11 1009.5 1008.6 0.0
25/10:00pm 20.4 14.6 2.3 30 8.5 WNW 22 32 12 17 1009.1 1008.3 0.0
25/09:30pm 20.3 15.5 2.6 31 8.3 WNW 17 24 9 13 1008.8 1008.0 0.0
25/09:00pm 20.2 15.8 2.5 31 8.3 WNW 15 19 8 10 1008.5 1007.7 0.0
25/08:30pm 21.5 16.9 1.7 27 9.2 WNW 15 20 8 11 1008.1 1007.3 0.0
25/08:00pm 22.8 17.5 1.8 25 9.9 WNW 19 26 10 14 1007.7 1006.9 0.0
25/07:30pm 23.9 18.3 1.5 23 10.6 W 20 28 11 15 1007.4 1006.6 0.0
25/07:00pm 25.0 19.3 0.5 20 11.5 W 20 32 11 17 1007.0 1006.2 0.0
25/06:30pm 25.6 19.2 1.0 20 11.7 W 24 35 13 19 1006.7 1005.9 0.0
25/06:00pm 26.1 20.4 5.1 26 10.8 W 24 35 13 19 1006.5 1005.7 0.0
25/05:30pm 25.8 21.0 5.4 27 10.5 W 20 30 11 16 1006.3 1005.5 0.0
25/05:00pm 25.9 19.6 5.5 27 10.6 WNW 28 39 15 21 1006.2 1005.4 0.0
25/04:30pm 26.1 19.6 6.7 29 10.2 WNW 30 41 16 22 1006.1 1005.3 0.0
25/04:00pm 26.2 20.3 7.3 30 10.1 WNW 28 44 15 24 1006.1 1005.3 0.0
25/03:30pm 26.2 20.8 6.3 28 10.4 NW 24 39 13 21 1005.8 1005.0 0.0
25/03:00pm 25.9 21.1 7.5 31 9.9 WNW 22 33 12 18 1006.0 1005.2 0.0
25/02:30pm 24.4 19.5 8.4 36 8.6 WNW 24 32 13 17 1006.1 1005.3 0.0
25/02:00pm 25.6 21.0 9.8 37 8.8 NW 24 35 13 19 1006.1 1005.3 0.0
25/01:30pm 24.7 21.4 9.4 38 8.4 W 17 39 9 21 1006.3 1005.5 0.0
25/01:00pm 24.6 21.3 10.8 42 7.8 W 19 30 10 16 1006.5 1005.7 0.0
25/12:30pm 24.1 19.0 9.3 39 8.1 W 26 39 14 21 1006.6 1005.8 0.0
25/12:00pm 23.6 20.3 11.6 47 6.8 W 20 33 11 18 1006.6 1005.8 0.0
25/11:30am 23.4 18.5 10.1 43 7.3 WNW 26 35 14 19 1006.5 1005.7 0.0
25/11:00am 23.1 19.5 10.5 45 7.0 WNW 20 30 11 16 1006.4 1005.6 0.0
25/10:30am 22.2 18.6 10.0 46 6.7 WNW 19 32 10 17 1006.2 1005.4 0.0
25/10:00am 22.2 18.6 10.4 47 6.5 WNW 20 28 11 15 1006.2 1005.4 0.0
25/09:30am 21.8 18.9 10.9 50 6.1 WNW 17 24 9 13 1006.2 1005.4 0.0
25/09:00am 21.5 18.1 10.6 50 6.0 WNW 19 28 10 15 1006.4 1005.6 0.2
25/08:30am 20.4 17.8 9.3 49 5.9 WNW 13 19 7 10 1006.0 1005.2 0.2
25/08:00am 19.6 17.3 10.3 55 5.1 NW 13 17 7 9 1005.7 1004.9 0.2

Other Formats:

Comma delimited format used in spreadsheet applications
http://www.bom.gov.au/fwo/IDN60801/IDN60801.95896.axf

JavaScript Object Notation format (JSON) in row-major order
http://www.bom.gov.au/fwo/IDN60801/IDN60801.95896.json